sensor_id;sensor_type;location;lat;lon;timestamp;pressure;altitude;pressure_sealevel;temperature
11849;BMP180;5983;49.966;8.052;2022-08-03T00:00:22;100600.00;;;20.20
11849;BMP180;5983;49.966;8.052;2022-08-03T00:02:50;100611.00;;;20.20
11849;BMP180;5983;49.966;8.052;2022-08-03T00:05:17;100607.00;;;20.20
11849;BMP180;5983;49.966;8.052;2022-08-03T00:07:46;100600.00;;;20.30
11849;BMP180;5983;49.966;8.052;2022-08-03T00:10:13;100601.00;;;20.20
11849;BMP180;5983;49.966;8.052;2022-08-03T00:12:40;100595.00;;;20.20
11849;BMP180;5983;49.966;8.052;2022-08-03T00:15:08;100605.00;;;20.30
11849;BMP180;5983;49.966;8.052;2022-08-03T00:17:35;100601.00;;;20.30
11849;BMP180;5983;49.966;8.052;2022-08-03T00:20:03;100604.00;;;20.30
11849;BMP180;5983;49.966;8.052;2022-08-03T00:22:30;100599.00;;;20.30
11849;BMP180;5983;49.966;8.052;2022-08-03T00:24:59;100607.00;;;20.20
11849;BMP180;5983;49.966;8.052;2022-08-03T00:27:26;100605.00;;;20.10
11849;BMP180;5983;49.966;8.052;2022-08-03T00:29:53;100605.00;;;20.10
11849;BMP180;5983;49.966;8.052;2022-08-03T00:32:20;100595.00;;;20.00
11849;BMP180;5983;49.966;8.052;2022-08-03T00:34:46;100604.00;;;19.90
11849;BMP180;5983;49.966;8.052;2022-08-03T00:37:13;100602.00;;;19.90
11849;BMP180;5983;49.966;8.052;2022-08-03T00:39:40;100601.00;;;19.80
11849;BMP180;5983;49.966;8.052;2022-08-03T00:42:09;100595.00;;;19.70
11849;BMP180;5983;49.966;8.052;2022-08-03T00:44:39;100595.00;;;19.70
11849;BMP180;5983;49.966;8.052;2022-08-03T00:47:06;100586.00;;;19.80
11849;BMP180;5983;49.966;8.052;2022-08-03T00:49:35;100595.00;;;19.70
11849;BMP180;5983;49.966;8.052;2022-08-03T00:52:03;100602.00;;;19.80
11849;BMP180;5983;49.966;8.052;2022-08-03T00:54:31;100589.00;;;19.70
11849;BMP180;5983;49.966;8.052;2022-08-03T00:56:59;100600.00;;;19.70
11849;BMP180;5983;49.966;8.052;2022-08-03T00:59:29;100592.00;;;19.60
11849;BMP180;5983;49.966;8.052;2022-08-03T01:01:56;100591.00;;;19.70
11849;BMP180;5983;49.966;8.052;2022-08-03T01:04:24;100583.00;;;19.70
11849;BMP180;5983;49.966;8.052;2022-08-03T01:07:01;100594.00;;;19.70
11849;BMP180;5983;49.966;8.052;2022-08-03T01:09:40;100595.00;;;19.70
11849;BMP180;5983;49.966;8.052;2022-08-03T01:12:21;100593.00;;;19.60
11849;BMP180;5983;49.966;8.052;2022-08-03T01:14:59;100594.00;;;19.60
11849;BMP180;5983;49.966;8.052;2022-08-03T01:17:35;100592.00;;;19.60
11849;BMP180;5983;49.966;8.052;2022-08-03T01:20:08;100586.00;;;19.50
11849;BMP180;5983;49.966;8.052;2022-08-03T01:23:02;100589.00;;;19.40
11849;BMP180;5983;49.966;8.052;2022-08-03T01:29:02;100586.00;;;19.30
11849;BMP180;5983;49.966;8.052;2022-08-03T01:31:49;100581.00;;;19.30
11849;BMP180;5983;49.966;8.052;2022-08-03T01:34:20;100588.00;;;19.20
11849;BMP180;5983;49.966;8.052;2022-08-03T01:36:53;100580.00;;;19.20
11849;BMP180;5983;49.966;8.052;2022-08-03T01:39:23;100581.00;;;19.20
11849;BMP180;5983;49.966;8.052;2022-08-03T01:41:58;100583.00;;;19.10
11849;BMP180;5983;49.966;8.052;2022-08-03T01:44:36;100572.00;;;19.10
11849;BMP180;5983;49.966;8.052;2022-08-03T01:47:06;100574.00;;;19.10
11849;BMP180;5983;49.966;8.052;2022-08-03T01:49:38;100567.00;;;19.00
11849;BMP180;5983;49.966;8.052;2022-08-03T01:52:07;100573.00;;;19.10
11849;BMP180;5983;49.966;8.052;2022-08-03T01:54:39;100571.00;;;19.10
11849;BMP180;5983;49.966;8.052;2022-08-03T01:57:09;100569.00;;;19.10
11849;BMP180;5983;49.966;8.052;2022-08-03T01:59:37;100569.00;;;19.10
11849;BMP180;5983;49.966;8.052;2022-08-03T02:02:07;100571.00;;;19.00
11849;BMP180;5983;49.966;8.052;2022-08-03T02:04:38;100563.00;;;19.00
11849;BMP180;5983;49.966;8.052;2022-08-03T02:07:08;100566.00;;;19.00
11849;BMP180;5983;49.966;8.052;2022-08-03T02:09:38;100571.00;;;19.00
11849;BMP180;5983;49.966;8.052;2022-08-03T02:12:08;100573.00;;;19.00
11849;BMP180;5983;49.966;8.052;2022-08-03T02:14:37;100567.00;;;18.90
11849;BMP180;5983;49.966;8.052;2022-08-03T02:17:06;100575.00;;;18.80
11849;BMP180;5983;49.966;8.052;2022-08-03T02:19:35;100567.00;;;18.70
11849;BMP180;5983;49.966;8.052;2022-08-03T02:22:05;100566.00;;;18.60
11849;BMP180;5983;49.966;8.052;2022-08-03T02:24:34;100579.00;;;18.50
11849;BMP180;5983;49.966;8.052;2022-08-03T02:27:07;100565.00;;;18.50
11849;BMP180;5983;49.966;8.052;2022-08-03T02:29:38;100566.00;;;18.60
11849;BMP180;5983;49.966;8.052;2022-08-03T02:32:13;100576.00;;;18.50
11849;BMP180;5983;49.966;8.052;2022-08-03T02:34:46;100569.00;;;18.40
11849;BMP180;5983;49.966;8.052;2022-08-03T02:37:18;100571.00;;;18.40
11849;BMP180;5983;49.966;8.052;2022-08-03T02:39:46;100565.00;;;18.40
11849;BMP180;5983;49.966;8.052;2022-08-03T02:42:20;100570.00;;;18.40
11849;BMP180;5983;49.966;8.052;2022-08-03T02:44:50;100566.00;;;18.40
11849;BMP180;5983;49.966;8.052;2022-08-03T02:47:21;100569.00;;;18.40
11849;BMP180;5983;49.966;8.052;2022-08-03T02:49:49;100566.00;;;18.40
11849;BMP180;5983;49.966;8.052;2022-08-03T02:52:19;100566.00;;;18.30
11849;BMP180;5983;49.966;8.052;2022-08-03T02:54:51;100563.00;;;18.20
11849;BMP180;5983;49.966;8.052;2022-08-03T02:57:19;100567.00;;;18.20
11849;BMP180;5983;49.966;8.052;2022-08-03T02:59:48;100563.00;;;18.20
11849;BMP180;5983;49.966;8.052;2022-08-03T03:02:17;100565.00;;;18.20
11849;BMP180;5983;49.966;8.052;2022-08-03T03:04:46;100560.00;;;18.20
11849;BMP180;5983;49.966;8.052;2022-08-03T03:07:18;100563.00;;;18.20
11849;BMP180;5983;49.966;8.052;2022-08-03T03:09:46;100563.00;;;18.20
11849;BMP180;5983;49.966;8.052;2022-08-03T03:12:15;100559.00;;;18.10
11849;BMP180;5983;49.966;8.052;2022-08-03T03:14:43;100560.00;;;18.10
11849;BMP180;5983;49.966;8.052;2022-08-03T03:17:11;100561.00;;;18.10
11849;BMP180;5983;49.966;8.052;2022-08-03T03:19:41;100561.00;;;18.10
11849;BMP180;5983;49.966;8.052;2022-08-03T03:22:12;100556.00;;;18.00
11849;BMP180;5983;49.966;8.052;2022-08-03T03:24:41;100555.00;;;17.90
11849;BMP180;5983;49.966;8.052;2022-08-03T03:27:12;100554.00;;;17.90
11849;BMP180;5983;49.966;8.052;2022-08-03T03:29:40;100550.00;;;17.90
11849;BMP180;5983;49.966;8.052;2022-08-03T03:32:07;100563.00;;;17.90
11849;BMP180;5983;49.966;8.052;2022-08-03T03:34:36;100564.00;;;17.90
11849;BMP180;5983;49.966;8.052;2022-08-03T03:37:03;100566.00;;;17.80
11849;BMP180;5983;49.966;8.052;2022-08-03T03:39:32;100554.00;;;17.80
11849;BMP180;5983;49.966;8.052;2022-08-03T03:42:01;100561.00;;;17.70
11849;BMP180;5983;49.966;8.052;2022-08-03T03:44:29;100559.00;;;17.80
11849;BMP180;5983;49.966;8.052;2022-08-03T03:46:56;100562.00;;;17.80
11849;BMP180;5983;49.966;8.052;2022-08-03T03:49:23;100572.00;;;17.80
11849;BMP180;5983;49.966;8.052;2022-08-03T03:51:52;100559.00;;;17.80
11849;BMP180;5983;49.966;8.052;2022-08-03T03:54:20;100564.00;;;17.80
11849;BMP180;5983;49.966;8.052;2022-08-03T03:56:48;100570.00;;;17.80
11849;BMP180;5983;49.966;8.052;2022-08-03T03:59:15;100570.00;;;17.80
11849;BMP180;5983;49.966;8.052;2022-08-03T04:01:42;100563.00;;;17.80
11849;BMP180;5983;49.966;8.052;2022-08-03T04:04:09;100560.00;;;17.70
11849;BMP180;5983;49.966;8.052;2022-08-03T04:06:54;100562.00;;;17.70
11849;BMP180;5983;49.966;8.052;2022-08-03T04:09:42;100557.00;;;17.60
11849;BMP180;5983;49.966;8.052;2022-08-03T04:12:30;100562.00;;;17.50
11849;BMP180;5983;49.966;8.052;2022-08-03T04:14:58;100557.00;;;17.60
11849;BMP180;5983;49.966;8.052;2022-08-03T04:17:28;100563.00;;;17.60
11849;BMP180;5983;49.966;8.052;2022-08-03T04:19:57;100556.00;;;17.50
11849;BMP180;5983;49.966;8.052;2022-08-03T04:22:29;100554.00;;;17.50
11849;BMP180;5983;49.966;8.052;2022-08-03T04:25:02;100557.00;;;17.40
11849;BMP180;5983;49.966;8.052;2022-08-03T04:27:35;100556.00;;;17.40
11849;BMP180;5983;49.966;8.052;2022-08-03T04:30:06;100565.00;;;17.40
11849;BMP180;5983;49.966;8.052;2022-08-03T04:32:36;100568.00;;;17.30
11849;BMP180;5983;49.966;8.052;2022-08-03T04:35:06;100565.00;;;17.30
11849;BMP180;5983;49.966;8.052;2022-08-03T04:37:38;100564.00;;;17.30
11849;BMP180;5983;49.966;8.052;2022-08-03T04:40:10;100563.00;;;17.40
11849;BMP180;5983;49.966;8.052;2022-08-03T04:42:41;100568.00;;;17.40
11849;BMP180;5983;49.966;8.052;2022-08-03T04:45:12;100568.00;;;17.50
11849;BMP180;5983;49.966;8.052;2022-08-03T04:47:41;100562.00;;;17.50
11849;BMP180;5983;49.966;8.052;2022-08-03T04:50:09;100568.00;;;17.50
11849;BMP180;5983;49.966;8.052;2022-08-03T04:52:37;100565.00;;;17.60
11849;BMP180;5983;49.966;8.052;2022-08-03T04:55:05;100571.00;;;17.70
11849;BMP180;5983;49.966;8.052;2022-08-03T04:57:33;100576.00;;;17.80
11849;BMP180;5983;49.966;8.052;2022-08-03T05:00:02;100577.00;;;17.90
11849;BMP180;5983;49.966;8.052;2022-08-03T05:02:30;100586.00;;;18.00
11849;BMP180;5983;49.966;8.052;2022-08-03T05:04:59;100581.00;;;18.10
11849;BMP180;5983;49.966;8.052;2022-08-03T05:07:26;100588.00;;;18.20
11849;BMP180;5983;49.966;8.052;2022-08-03T05:09:53;100589.00;;;18.30
11849;BMP180;5983;49.966;8.052;2022-08-03T05:12:20;100596.00;;;18.40
11849;BMP180;5983;49.966;8.052;2022-08-03T05:14:48;100597.00;;;18.50
11849;BMP180;5983;49.966;8.052;2022-08-03T05:17:16;100594.00;;;18.60
11849;BMP180;5983;49.966;8.052;2022-08-03T05:19:44;100595.00;;;18.60
11849;BMP180;5983;49.966;8.052;2022-08-03T05:22:11;100589.00;;;18.80
11849;BMP180;5983;49.966;8.052;2022-08-03T05:24:37;100596.00;;;18.90
11849;BMP180;5983;49.966;8.052;2022-08-03T05:27:04;100602.00;;;19.00
11849;BMP180;5983;49.966;8.052;2022-08-03T05:29:31;100600.00;;;19.10
11849;BMP180;5983;49.966;8.052;2022-08-03T05:31:59;100608.00;;;19.20
11849;BMP180;5983;49.966;8.052;2022-08-03T05:34:28;100614.00;;;19.40
11849;BMP180;5983;49.966;8.052;2022-08-03T05:36:56;100612.00;;;19.50
11849;BMP180;5983;49.966;8.052;2022-08-03T05:39:23;100608.00;;;19.60
11849;BMP180;5983;49.966;8.052;2022-08-03T05:41:50;100604.00;;;19.70
11849;BMP180;5983;49.966;8.052;2022-08-03T05:44:17;100607.00;;;19.80
11849;BMP180;5983;49.966;8.052;2022-08-03T05:46:44;100608.00;;;19.90
11849;BMP180;5983;49.966;8.052;2022-08-03T05:49:10;100605.00;;;20.00
11849;BMP180;5983;49.966;8.052;2022-08-03T05:51:39;100602.00;;;20.10
11849;BMP180;5983;49.966;8.052;2022-08-03T05:54:06;100611.00;;;20.20
11849;BMP180;5983;49.966;8.052;2022-08-03T05:56:33;100611.00;;;20.30
11849;BMP180;5983;49.966;8.052;2022-08-03T05:59:00;100614.00;;;20.30
11849;BMP180;5983;49.966;8.052;2022-08-03T06:01:26;100608.00;;;20.40
11849;BMP180;5983;49.966;8.052;2022-08-03T06:03:53;100616.00;;;20.50
11849;BMP180;5983;49.966;8.052;2022-08-03T06:06:20;100612.00;;;20.70
11849;BMP180;5983;49.966;8.052;2022-08-03T06:08:49;100608.00;;;20.90
11849;BMP180;5983;49.966;8.052;2022-08-03T06:11:16;100607.00;;;21.00
11849;BMP180;5983;49.966;8.052;2022-08-03T06:13:43;100606.00;;;21.20
11849;BMP180;5983;49.966;8.052;2022-08-03T06:16:10;100606.00;;;21.30
11849;BMP180;5983;49.966;8.052;2022-08-03T06:18:38;100608.00;;;21.40
11849;BMP180;5983;49.966;8.052;2022-08-03T06:21:05;100611.00;;;21.60
11849;BMP180;5983;49.966;8.052;2022-08-03T06:23:32;100606.00;;;21.70
11849;BMP180;5983;49.966;8.052;2022-08-03T06:26:00;100608.00;;;21.80
11849;BMP180;5983;49.966;8.052;2022-08-03T06:28:28;100606.00;;;21.90
11849;BMP180;5983;49.966;8.052;2022-08-03T06:30:55;100596.00;;;22.00
11849;BMP180;5983;49.966;8.052;2022-08-03T06:33:22;100599.00;;;22.10
11849;BMP180;5983;49.966;8.052;2022-08-03T06:35:50;100609.00;;;22.20
11849;BMP180;5983;49.966;8.052;2022-08-03T06:38:16;100605.00;;;22.30
11849;BMP180;5983;49.966;8.052;2022-08-03T06:40:43;100615.00;;;22.40
11849;BMP180;5983;49.966;8.052;2022-08-03T06:43:12;100608.00;;;22.60
11849;BMP180;5983;49.966;8.052;2022-08-03T06:45:40;100616.00;;;22.70
11849;BMP180;5983;49.966;8.052;2022-08-03T06:48:09;100617.00;;;22.80
11849;BMP180;5983;49.966;8.052;2022-08-03T06:50:40;100615.00;;;22.90
11849;BMP180;5983;49.966;8.052;2022-08-03T06:53:09;100605.00;;;23.10
11849;BMP180;5983;49.966;8.052;2022-08-03T06:55:36;100605.00;;;23.20
11849;BMP180;5983;49.966;8.052;2022-08-03T06:58:03;100614.00;;;23.40
11849;BMP180;5983;49.966;8.052;2022-08-03T07:00:32;100614.00;;;23.60
11849;BMP180;5983;49.966;8.052;2022-08-03T07:02:59;100610.00;;;23.80
11849;BMP180;5983;49.966;8.052;2022-08-03T07:05:26;100618.00;;;23.90
11849;BMP180;5983;49.966;8.052;2022-08-03T07:07:55;100608.00;;;24.10
11849;BMP180;5983;49.966;8.052;2022-08-03T07:10:24;100611.00;;;24.30
11849;BMP180;5983;49.966;8.052;2022-08-03T07:12:52;100612.00;;;24.50
11849;BMP180;5983;49.966;8.052;2022-08-03T07:15:19;100612.00;;;24.70
11849;BMP180;5983;49.966;8.052;2022-08-03T07:17:47;100622.00;;;24.80
11849;BMP180;5983;49.966;8.052;2022-08-03T07:20:14;100623.00;;;25.00
11849;BMP180;5983;49.966;8.052;2022-08-03T07:22:43;100625.00;;;25.20
11849;BMP180;5983;49.966;8.052;2022-08-03T07:25:10;100623.00;;;25.40
11849;BMP180;5983;49.966;8.052;2022-08-03T07:27:37;100618.00;;;25.50
11849;BMP180;5983;49.966;8.052;2022-08-03T07:30:07;100625.00;;;25.70
11849;BMP180;5983;49.966;8.052;2022-08-03T07:32:34;100624.00;;;25.80
11849;BMP180;5983;49.966;8.052;2022-08-03T07:35:04;100626.00;;;25.90
11849;BMP180;5983;49.966;8.052;2022-08-03T07:37:31;100637.00;;;26.00
11849;BMP180;5983;49.966;8.052;2022-08-03T07:39:59;100631.00;;;26.10
11849;BMP180;5983;49.966;8.052;2022-08-03T07:42:27;100625.00;;;26.20
11849;BMP180;5983;49.966;8.052;2022-08-03T07:44:55;100632.00;;;26.30
11849;BMP180;5983;49.966;8.052;2022-08-03T07:47:25;100626.00;;;26.40
11849;BMP180;5983;49.966;8.052;2022-08-03T07:49:53;100629.00;;;26.60
11849;BMP180;5983;49.966;8.052;2022-08-03T07:52:21;100629.00;;;26.70
11849;BMP180;5983;49.966;8.052;2022-08-03T07:55:06;100632.00;;;26.80
11849;BMP180;5983;49.966;8.052;2022-08-03T07:57:34;100630.00;;;27.00
11849;BMP180;5983;49.966;8.052;2022-08-03T08:00:02;100625.00;;;27.10
11849;BMP180;5983;49.966;8.052;2022-08-03T08:02:29;100626.00;;;27.30
11849;BMP180;5983;49.966;8.052;2022-08-03T08:04:56;100630.00;;;27.40
11849;BMP180;5983;49.966;8.052;2022-08-03T08:07:24;100626.00;;;27.60
11849;BMP180;5983;49.966;8.052;2022-08-03T08:09:52;100622.00;;;27.70
11849;BMP180;5983;49.966;8.052;2022-08-03T08:12:19;100623.00;;;27.90
11849;BMP180;5983;49.966;8.052;2022-08-03T08:14:46;100618.00;;;28.10
11849;BMP180;5983;49.966;8.052;2022-08-03T08:17:13;100616.00;;;28.30
11849;BMP180;5983;49.966;8.052;2022-08-03T08:19:40;100609.00;;;28.40
11849;BMP180;5983;49.966;8.052;2022-08-03T08:22:07;100615.00;;;28.60
11849;BMP180;5983;49.966;8.052;2022-08-03T08:24:35;100616.00;;;28.80
11849;BMP180;5983;49.966;8.052;2022-08-03T08:27:02;100616.00;;;28.90
11849;BMP180;5983;49.966;8.052;2022-08-03T08:29:29;100619.00;;;29.00
11849;BMP180;5983;49.966;8.052;2022-08-03T08:31:56;100616.00;;;29.20
11849;BMP180;5983;49.966;8.052;2022-08-03T08:34:23;100621.00;;;29.30
11849;BMP180;5983;49.966;8.052;2022-08-03T08:36:50;100617.00;;;29.40
11849;BMP180;5983;49.966;8.052;2022-08-03T08:39:16;100619.00;;;29.50
11849;BMP180;5983;49.966;8.052;2022-08-03T08:41:45;100618.00;;;29.60
11849;BMP180;5983;49.966;8.052;2022-08-03T08:44:12;100613.00;;;29.70
11849;BMP180;5983;49.966;8.052;2022-08-03T08:46:39;100612.00;;;29.80
11849;BMP180;5983;49.966;8.052;2022-08-03T08:49:08;100614.00;;;30.00
11849;BMP180;5983;49.966;8.052;2022-08-03T08:51:39;100619.00;;;30.20
11849;BMP180;5983;49.966;8.052;2022-08-03T08:54:07;100610.00;;;30.20
11849;BMP180;5983;49.966;8.052;2022-08-03T08:56:35;100608.00;;;30.30
11849;BMP180;5983;49.966;8.052;2022-08-03T08:59:05;100607.00;;;30.40
11849;BMP180;5983;49.966;8.052;2022-08-03T09:01:33;100601.00;;;30.50
11849;BMP180;5983;49.966;8.052;2022-08-03T09:04:01;100607.00;;;30.60
11849;BMP180;5983;49.966;8.052;2022-08-03T09:06:31;100611.00;;;30.70
11849;BMP180;5983;49.966;8.052;2022-08-03T09:08:58;100608.00;;;30.90
11849;BMP180;5983;49.966;8.052;2022-08-03T09:11:25;100602.00;;;31.00
11849;BMP180;5983;49.966;8.052;2022-08-03T09:13:52;100609.00;;;31.20
11849;BMP180;5983;49.966;8.052;2022-08-03T09:16:21;100602.00;;;31.30
11849;BMP180;5983;49.966;8.052;2022-08-03T09:18:52;100603.00;;;31.60
11849;BMP180;5983;49.966;8.052;2022-08-03T09:21:22;100605.00;;;31.70
11849;BMP180;5983;49.966;8.052;2022-08-03T09:23:52;100608.00;;;31.80
11849;BMP180;5983;49.966;8.052;2022-08-03T09:26:21;100604.00;;;31.90
11849;BMP180;5983;49.966;8.052;2022-08-03T09:28:55;100600.00;;;32.10
11849;BMP180;5983;49.966;8.052;2022-08-03T09:31:32;100599.00;;;32.20
11849;BMP180;5983;49.966;8.052;2022-08-03T09:34:05;100599.00;;;32.40
11849;BMP180;5983;49.966;8.052;2022-08-03T09:36:37;100604.00;;;32.50
11849;BMP180;5983;49.966;8.052;2022-08-03T09:39:07;100604.00;;;32.70
11849;BMP180;5983;49.966;8.052;2022-08-03T09:41:37;100605.00;;;32.60
11849;BMP180;5983;49.966;8.052;2022-08-03T09:44:04;100602.00;;;32.60
11849;BMP180;5983;49.966;8.052;2022-08-03T09:46:47;100603.00;;;32.70
11849;BMP180;5983;49.966;8.052;2022-08-03T09:49:14;100589.00;;;32.80
11849;BMP180;5983;49.966;8.052;2022-08-03T09:51:43;100593.00;;;32.90
11849;BMP180;5983;49.966;8.052;2022-08-03T09:54:10;100599.00;;;33.00
11849;BMP180;5983;49.966;8.052;2022-08-03T09:56:42;100594.00;;;33.20
11849;BMP180;5983;49.966;8.052;2022-08-03T09:59:11;100594.00;;;33.40
11849;BMP180;5983;49.966;8.052;2022-08-03T10:01:40;100596.00;;;33.50
11849;BMP180;5983;49.966;8.052;2022-08-03T10:04:12;100594.00;;;33.50
11849;BMP180;5983;49.966;8.052;2022-08-03T10:06:43;100580.00;;;33.50
11849;BMP180;5983;49.966;8.052;2022-08-03T10:09:11;100573.00;;;33.60
11849;BMP180;5983;49.966;8.052;2022-08-03T10:11:40;100568.00;;;33.70
11849;BMP180;5983;49.966;8.052;2022-08-03T10:14:11;100573.00;;;33.50
11849;BMP180;5983;49.966;8.052;2022-08-03T10:16:46;100564.00;;;33.40
11849;BMP180;5983;49.966;8.052;2022-08-03T10:19:14;100558.00;;;33.40
11849;BMP180;5983;49.966;8.052;2022-08-03T10:21:48;100565.00;;;33.40
11849;BMP180;5983;49.966;8.052;2022-08-03T10:24:23;100564.00;;;33.60
11849;BMP180;5983;49.966;8.052;2022-08-03T10:26:56;100564.00;;;33.60
11849;BMP180;5983;49.966;8.052;2022-08-03T10:29:27;100561.00;;;33.60
11849;BMP180;5983;49.966;8.052;2022-08-03T10:32:00;100558.00;;;33.60
11849;BMP180;5983;49.966;8.052;2022-08-03T10:34:34;100555.00;;;33.70
11849;BMP180;5983;49.966;8.052;2022-08-03T10:37:09;100555.00;;;33.70
11849;BMP180;5983;49.966;8.052;2022-08-03T10:39:37;100556.00;;;33.60
11849;BMP180;5983;49.966;8.052;2022-08-03T10:42:20;100547.00;;;33.50
11849;BMP180;5983;49.966;8.052;2022-08-03T10:44:53;100542.00;;;33.60
11849;BMP180;5983;49.966;8.052;2022-08-03T10:47:23;100537.00;;;33.70
11849;BMP180;5983;49.966;8.052;2022-08-03T10:49:50;100543.00;;;33.70
11849;BMP180;5983;49.966;8.052;2022-08-03T10:52:17;100526.00;;;33.90
11849;BMP180;5983;49.966;8.052;2022-08-03T10:54:45;100542.00;;;34.00
11849;BMP180;5983;49.966;8.052;2022-08-03T10:57:48;100532.00;;;34.00
11849;BMP180;5983;49.966;8.052;2022-08-03T11:00:17;100533.00;;;34.10
11849;BMP180;5983;49.966;8.052;2022-08-03T11:03:16;100522.00;;;34.20
11849;BMP180;5983;49.966;8.052;2022-08-03T11:05:45;100528.00;;;34.40
11849;BMP180;5983;49.966;8.052;2022-08-03T11:08:29;100524.00;;;34.50
11849;BMP180;5983;49.966;8.052;2022-08-03T11:11:00;100530.00;;;34.40
11849;BMP180;5983;49.966;8.052;2022-08-03T11:13:29;100520.00;;;34.40
11849;BMP180;5983;49.966;8.052;2022-08-03T11:16:02;100517.00;;;34.40
11849;BMP180;5983;49.966;8.052;2022-08-03T11:18:57;100515.00;;;34.50
11849;BMP180;5983;49.966;8.052;2022-08-03T11:21:54;100515.00;;;34.50
11849;BMP180;5983;49.966;8.052;2022-08-03T11:24:56;100516.00;;;34.60
11849;BMP180;5983;49.966;8.052;2022-08-03T11:27:26;100514.00;;;34.50
11849;BMP180;5983;49.966;8.052;2022-08-03T11:30:00;100510.00;;;34.50
11849;BMP180;5983;49.966;8.052;2022-08-03T11:32:59;100511.00;;;34.50
11849;BMP180;5983;49.966;8.052;2022-08-03T11:35:30;100517.00;;;34.60
11849;BMP180;5983;49.966;8.052;2022-08-03T11:38:09;100507.00;;;34.80
11849;BMP180;5983;49.966;8.052;2022-08-03T11:40:41;100513.00;;;34.70
11849;BMP180;5983;49.966;8.052;2022-08-03T11:43:43;100517.00;;;34.70
11849;BMP180;5983;49.966;8.052;2022-08-03T11:46:13;100506.00;;;34.70
11849;BMP180;5983;49.966;8.052;2022-08-03T11:48:45;100513.00;;;34.60
11849;BMP180;5983;49.966;8.052;2022-08-03T11:51:22;100514.00;;;34.50
11849;BMP180;5983;49.966;8.052;2022-08-03T11:53:54;100505.00;;;34.40
11849;BMP180;5983;49.966;8.052;2022-08-03T11:56:21;100510.00;;;34.50
11849;BMP180;5983;49.966;8.052;2022-08-03T11:58:51;100504.00;;;34.50
11849;BMP180;5983;49.966;8.052;2022-08-03T12:01:20;100513.00;;;34.60
11849;BMP180;5983;49.966;8.052;2022-08-03T12:03:48;100493.00;;;34.60
11849;BMP180;5983;49.966;8.052;2022-08-03T12:06:17;100493.00;;;34.70
11849;BMP180;5983;49.966;8.052;2022-08-03T12:08:45;100484.00;;;34.80
11849;BMP180;5983;49.966;8.052;2022-08-03T12:11:14;100490.00;;;34.90
11849;BMP180;5983;49.966;8.052;2022-08-03T12:13:44;100490.00;;;34.90
11849;BMP180;5983;49.966;8.052;2022-08-03T12:16:17;100497.00;;;34.80
11849;BMP180;5983;49.966;8.052;2022-08-03T12:18:45;100496.00;;;34.60
11849;BMP180;5983;49.966;8.052;2022-08-03T12:21:12;100500.00;;;34.50
11849;BMP180;5983;49.966;8.052;2022-08-03T12:23:39;100494.00;;;34.50
11849;BMP180;5983;49.966;8.052;2022-08-03T12:26:09;100491.00;;;34.60
11849;BMP180;5983;49.966;8.052;2022-08-03T12:28:36;100487.00;;;34.60
11849;BMP180;5983;49.966;8.052;2022-08-03T12:31:06;100481.00;;;34.60
11849;BMP180;5983;49.966;8.052;2022-08-03T12:33:59;100476.00;;;34.60
11849;BMP180;5983;49.966;8.052;2022-08-03T12:36:29;100486.00;;;34.70
11849;BMP180;5983;49.966;8.052;2022-08-03T12:38:59;100479.00;;;34.90
11849;BMP180;5983;49.966;8.052;2022-08-03T12:41:29;100473.00;;;35.00
11849;BMP180;5983;49.966;8.052;2022-08-03T12:43:57;100475.00;;;34.90
11849;BMP180;5983;49.966;8.052;2022-08-03T12:46:31;100476.00;;;34.90
11849;BMP180;5983;49.966;8.052;2022-08-03T12:49:04;100470.00;;;35.00
11849;BMP180;5983;49.966;8.052;2022-08-03T12:51:34;100470.00;;;35.00
11849;BMP180;5983;49.966;8.052;2022-08-03T12:54:03;100473.00;;;35.00
11849;BMP180;5983;49.966;8.052;2022-08-03T12:56:32;100472.00;;;35.00
11849;BMP180;5983;49.966;8.052;2022-08-03T12:59:00;100467.00;;;35.00
11849;BMP180;5983;49.966;8.052;2022-08-03T13:01:36;100468.00;;;35.00
11849;BMP180;5983;49.966;8.052;2022-08-03T13:04:03;100464.00;;;34.90
11849;BMP180;5983;49.966;8.052;2022-08-03T13:06:31;100463.00;;;34.80
11849;BMP180;5983;49.966;8.052;2022-08-03T13:09:04;100465.00;;;34.80
11849;BMP180;5983;49.966;8.052;2022-08-03T13:11:33;100468.00;;;34.70
11849;BMP180;5983;49.966;8.052;2022-08-03T13:14:00;100458.00;;;34.70
11849;BMP180;5983;49.966;8.052;2022-08-03T13:16:27;100456.00;;;34.70
11849;BMP180;5983;49.966;8.052;2022-08-03T13:18:54;100455.00;;;34.70
11849;BMP180;5983;49.966;8.052;2022-08-03T13:21:21;100465.00;;;34.60
11849;BMP180;5983;49.966;8.052;2022-08-03T13:23:48;100460.00;;;34.60
11849;BMP180;5983;49.966;8.052;2022-08-03T13:26:15;100452.00;;;34.50
11849;BMP180;5983;49.966;8.052;2022-08-03T13:28:43;100452.00;;;34.60
11849;BMP180;5983;49.966;8.052;2022-08-03T13:31:10;100447.00;;;34.70
11849;BMP180;5983;49.966;8.052;2022-08-03T13:33:37;100445.00;;;34.80
11849;BMP180;5983;49.966;8.052;2022-08-03T13:36:05;100446.00;;;34.80
11849;BMP180;5983;49.966;8.052;2022-08-03T13:38:32;100437.00;;;34.70
11849;BMP180;5983;49.966;8.052;2022-08-03T13:41:00;100440.00;;;34.60
11849;BMP180;5983;49.966;8.052;2022-08-03T13:43:28;100430.00;;;34.50
11849;BMP180;5983;49.966;8.052;2022-08-03T13:45:56;100429.00;;;34.60
11849;BMP180;5983;49.966;8.052;2022-08-03T13:48:23;100427.00;;;34.50
11849;BMP180;5983;49.966;8.052;2022-08-03T13:50:50;100429.00;;;34.40
11849;BMP180;5983;49.966;8.052;2022-08-03T13:53:17;100421.00;;;34.40
11849;BMP180;5983;49.966;8.052;2022-08-03T13:55:44;100421.00;;;34.40
11849;BMP180;5983;49.966;8.052;2022-08-03T13:58:11;100417.00;;;34.40
11849;BMP180;5983;49.966;8.052;2022-08-03T14:00:38;100419.00;;;34.50
11849;BMP180;5983;49.966;8.052;2022-08-03T14:03:06;100419.00;;;34.40
11849;BMP180;5983;49.966;8.052;2022-08-03T14:05:34;100411.00;;;34.40
11849;BMP180;5983;49.966;8.052;2022-08-03T14:08:04;100406.00;;;34.40
11849;BMP180;5983;49.966;8.052;2022-08-03T14:10:33;100407.00;;;34.40
11849;BMP180;5983;49.966;8.052;2022-08-03T14:13:00;100401.00;;;34.30
11849;BMP180;5983;49.966;8.052;2022-08-03T14:15:27;100409.00;;;34.30
11849;BMP180;5983;49.966;8.052;2022-08-03T14:17:54;100397.00;;;34.20
11849;BMP180;5983;49.966;8.052;2022-08-03T14:20:23;100395.00;;;34.20
11849;BMP180;5983;49.966;8.052;2022-08-03T14:22:50;100397.00;;;34.20
11849;BMP180;5983;49.966;8.052;2022-08-03T14:25:17;100398.00;;;34.20
11849;BMP180;5983;49.966;8.052;2022-08-03T14:27:44;100398.00;;;34.10